Terminal Aerodrome Forecast
Issued by NWS Green Bay, WI

Home | Current Version | Previous Version | Graphics & Text | Print | Product List | Glossary On
Versions: 1 2 3 4 5 6 7 8 9 10 11 12 13 14 15 16 17 18 19 20 21 22 23 24 25 26 27 28 29
000
FTUS43 KGRB 292300
TAFGRB
TAF
KGRB 292325Z 3000/3024 02010KT P6SM SCT014 OVC022
      TEMPO 3000/3004 -SHRA BKN014
     FM300400 01010G17KT P6SM OVC014
     FM301500 02008KT P6SM BKN025
     FM302000 04007KT P6SM SCT030=

USA.gov is the U.S. government's official web portal to all federal, state and local government web resources and services.